createdAt,value
2024-01-20T00:00:50.036Z,27.50
2024-01-20T00:03:20.902Z,29.30
2024-01-20T00:05:52.370Z,29.77
2024-01-20T00:08:24.222Z,27.85
2024-01-20T00:10:57.221Z,26.48
2024-01-20T00:13:28.325Z,30.70
2024-01-20T00:15:58.847Z,30.63
2024-01-20T00:18:29.207Z,25.23
2024-01-20T00:20:59.767Z,29.13
2024-01-20T00:23:30.336Z,32.60
2024-01-20T00:26:03.428Z,35.88
2024-01-20T00:28:33.575Z,28.13
2024-01-20T00:31:04.057Z,24.63
2024-01-20T00:33:35.255Z,20.80
2024-01-20T00:36:05.984Z,31.55
2024-01-20T00:38:40.297Z,25.63
2024-01-20T00:41:13.541Z,30.25
2024-01-20T00:43:43.773Z,29.08
2024-01-20T00:46:14.186Z,27.88
2024-01-20T00:48:44.254Z,26.55
2024-01-20T00:51:14.594Z,26.25
2024-01-20T00:53:44.776Z,27.48
2024-01-20T00:56:17.941Z,28.83
2024-01-20T00:58:49.098Z,28.13
2024-01-20T01:01:21.766Z,27.80
2024-01-20T01:03:52.031Z,28.00
2024-01-20T01:06:22.208Z,37.72
2024-01-20T01:08:52.991Z,30.98
2024-01-20T01:11:25.792Z,31.20
2024-01-20T01:13:56.961Z,39.35
2024-01-20T01:16:27.054Z,29.90
2024-01-20T01:18:57.541Z,29.10
2024-01-20T01:21:27.646Z,28.17
2024-01-20T01:23:58.492Z,30.00
2024-01-20T01:26:33.335Z,28.55
2024-01-20T01:29:04.154Z,27.75
2024-01-20T01:31:34.175Z,33.20
2024-01-20T01:34:04.851Z,31.23
2024-01-20T01:36:34.929Z,32.05
2024-01-20T01:39:05.390Z,31.15
2024-01-20T01:41:38.425Z,26.63
2024-01-20T01:44:09.086Z,30.58
2024-01-20T01:46:48.372Z,34.67
2024-01-20T01:49:18.937Z,30.15
2024-01-20T01:51:49.571Z,35.00
2024-01-20T01:54:20.296Z,29.83
2024-01-20T01:56:55.675Z,24.05
2024-01-20T01:59:27.835Z,28.95
2024-01-20T02:01:58.393Z,26.17
2024-01-20T02:04:29.602Z,27.98
2024-01-20T02:07:00.598Z,40.67
2024-01-20T02:09:30.854Z,26.38
2024-01-20T02:12:04.896Z,30.13
2024-01-20T02:14:35.470Z,35.58
2024-01-20T02:17:05.660Z,29.77
2024-01-20T02:19:40.755Z,38.47
2024-01-20T02:22:17.680Z,32.17
2024-01-20T02:24:51.532Z,29.48
2024-01-20T02:27:22.885Z,32.05
2024-01-20T02:29:53.954Z,25.25
2024-01-20T02:32:24.340Z,32.00
2024-01-20T02:34:54.384Z,26.48
2024-01-20T02:37:27.425Z,26.88
2024-01-20T02:39:57.515Z,25.90
2024-01-20T02:42:28.443Z,35.70
2024-01-20T02:45:02.652Z,34.72
2024-01-20T02:47:32.906Z,33.58
2024-01-20T02:50:03.390Z,36.00
2024-01-20T02:52:36.228Z,31.38
2024-01-20T02:55:07.048Z,29.17
2024-01-20T02:57:37.150Z,30.75
2024-01-20T03:00:09.458Z,35.05
2024-01-20T03:02:39.591Z,36.58
2024-01-20T03:05:10.908Z,29.60
2024-01-20T03:07:43.795Z,31.38
2024-01-20T03:10:14.625Z,39.22
2024-01-20T03:12:44.636Z,39.17
2024-01-20T03:15:16.129Z,30.45
2024-01-20T03:17:46.099Z,33.42
2024-01-20T03:20:16.357Z,37.65
2024-01-20T03:22:49.090Z,36.30
2024-01-20T03:25:19.291Z,32.80
2024-01-20T03:27:49.500Z,36.33
2024-01-20T03:30:22.266Z,34.28
2024-01-20T03:32:54.015Z,36.22
2024-01-20T03:35:25.416Z,29.77
2024-01-20T03:37:58.493Z,36.72
2024-01-20T03:40:29.993Z,35.03
2024-01-20T03:43:02.314Z,28.40
2024-01-20T03:45:32.741Z,32.80
2024-01-20T03:48:03.323Z,41.00
2024-01-20T03:50:33.727Z,36.60
2024-01-20T03:53:07.416Z,34.47
2024-01-20T03:55:37.577Z,37.75
2024-01-20T03:58:08.896Z,32.25
2024-01-20T04:00:39.775Z,33.90
2024-01-20T04:03:11.993Z,35.38
2024-01-20T04:05:42.525Z,26.67
2024-01-20T04:08:15.504Z,30.30
2024-01-20T04:10:45.710Z,32.33
2024-01-20T04:13:16.100Z,30.70
2024-01-20T04:15:46.619Z,27.70
2024-01-20T04:18:16.732Z,30.48
2024-01-20T04:20:47.185Z,28.23
2024-01-20T04:23:20.170Z,33.15
2024-01-20T04:25:51.036Z,27.70
2024-01-20T04:28:21.357Z,30.48
2024-01-20T04:30:52.110Z,23.90
2024-01-20T04:33:22.813Z,29.52
2024-01-20T04:35:54.228Z,28.20
2024-01-20T04:38:28.212Z,23.80
2024-01-20T04:40:58.306Z,28.20
2024-01-20T04:43:28.746Z,25.55
2024-01-20T04:45:58.766Z,25.30
2024-01-20T04:48:30.101Z,21.83
2024-01-20T04:51:00.562Z,23.55
2024-01-20T04:53:33.617Z,26.70
2024-01-20T04:56:07.240Z,19.60
2024-01-20T04:58:37.339Z,25.83
2024-01-20T05:01:09.706Z,24.23
2024-01-20T05:03:41.397Z,16.88
2024-01-20T05:06:11.769Z,21.20
2024-01-20T05:08:45.016Z,21.48
2024-01-20T05:11:16.228Z,25.30
2024-01-20T05:13:46.532Z,19.20
2024-01-20T05:16:17.296Z,24.83
2024-01-20T05:18:50.361Z,24.05
2024-01-20T05:21:20.947Z,19.90
2024-01-20T05:23:53.758Z,25.67
2024-01-20T05:26:24.051Z,20.52
2024-01-20T05:28:54.134Z,23.20
2024-01-20T05:31:24.971Z,15.50
2024-01-20T05:33:55.637Z,22.10
2024-01-20T05:36:27.706Z,15.32
2024-01-20T05:39:00.521Z,23.75
2024-01-20T05:41:30.725Z,20.65
2024-01-20T05:44:03.705Z,19.50
2024-01-20T05:46:34.398Z,17.85
2024-01-20T05:49:05.010Z,19.25
2024-01-20T05:51:35.523Z,25.05
2024-01-20T05:54:09.570Z,20.05
2024-01-20T05:56:39.720Z,22.85
2024-01-20T05:59:09.841Z,22.77
2024-01-20T06:01:37.150Z,21.95
2024-01-20T06:04:08.106Z,18.30
2024-01-20T06:06:38.710Z,20.67
2024-01-20T06:09:11.754Z,20.45
2024-01-20T06:11:42.197Z,20.70
2024-01-20T06:14:13.410Z,19.73
2024-01-20T06:16:44.108Z,15.38
2024-01-20T06:19:15.421Z,19.08
2024-01-20T06:21:45.800Z,20.15
2024-01-20T06:24:18.783Z,18.00
2024-01-20T06:26:49.128Z,14.93
2024-01-20T06:29:19.300Z,18.88
2024-01-20T06:31:49.337Z,25.17
2024-01-20T06:34:20.064Z,23.65
2024-01-20T06:36:51.220Z,20.77
2024-01-20T06:39:24.514Z,16.90
2024-01-20T06:41:54.893Z,27.10
2024-01-20T06:44:25.897Z,22.10
2024-01-20T06:46:55.967Z,21.17
2024-01-20T06:49:26.682Z,18.83
2024-01-20T06:51:56.854Z,18.92
2024-01-20T06:54:30.439Z,19.27
2024-01-20T06:57:00.808Z,27.65
2024-01-20T06:59:30.750Z,23.48
2024-01-20T07:02:01.679Z,19.88
2024-01-20T07:04:32.499Z,25.55
2024-01-20T07:07:02.600Z,22.77
2024-01-20T07:09:35.605Z,17.92
2024-01-20T07:12:05.779Z,21.92
2024-01-20T07:14:36.797Z,21.08
2024-01-20T07:17:07.060Z,23.17
2024-01-20T07:19:37.289Z,19.35
2024-01-20T07:22:08.106Z,19.30
2024-01-20T07:24:41.224Z,17.67
2024-01-20T07:27:11.414Z,28.33
2024-01-20T07:29:42.606Z,28.20
2024-01-20T07:32:12.527Z,26.48
2024-01-20T07:34:42.528Z,25.00
2024-01-20T07:37:13.231Z,25.70
2024-01-20T07:39:48.399Z,18.80
2024-01-20T07:42:18.719Z,26.08
2024-01-20T07:44:48.903Z,18.70
2024-01-20T07:47:20.547Z,19.52
2024-01-20T07:49:51.637Z,24.38
2024-01-20T07:52:21.949Z,24.15
2024-01-20T07:54:54.920Z,25.13
2024-01-20T07:59:54.967Z,19.75
2024-01-20T08:02:25.138Z,22.90
2024-01-20T08:04:56.072Z,17.70
2024-01-20T08:07:26.530Z,23.92
2024-01-20T08:09:59.374Z,22.38
2024-01-20T08:12:29.681Z,16.70
2024-01-20T08:14:59.717Z,21.17
2024-01-20T08:17:30.048Z,20.80
2024-01-20T08:20:01.869Z,25.20
2024-01-20T08:22:32.357Z,22.63
2024-01-20T08:25:06.548Z,18.70
2024-01-20T08:27:36.593Z,25.90
2024-01-20T08:30:09.020Z,26.58
2024-01-20T08:32:41.152Z,18.30
2024-01-20T08:35:12.575Z,18.25
2024-01-20T08:37:42.570Z,24.20
2024-01-20T08:40:16.153Z,24.15
2024-01-20T08:42:46.379Z,24.13
2024-01-20T08:45:16.761Z,22.63
2024-01-20T08:47:48.152Z,19.65
2024-01-20T08:50:19.663Z,15.95
2024-01-20T08:52:49.680Z,22.95
2024-01-20T08:55:22.336Z,17.27
2024-01-20T08:57:53.028Z,17.17
2024-01-20T09:00:23.894Z,17.13
2024-01-20T09:02:54.224Z,19.15
2024-01-20T09:05:24.479Z,21.67
2024-01-20T09:07:54.426Z,29.55
2024-01-20T09:10:32.675Z,21.00
2024-01-20T09:13:02.622Z,26.02
2024-01-20T09:15:33.345Z,20.35
2024-01-20T09:18:05.376Z,16.63
2024-01-20T09:20:36.486Z,17.65
2024-01-20T09:23:07.523Z,16.58
2024-01-20T09:25:40.511Z,20.13
2024-01-20T09:30:41.160Z,19.20
2024-01-20T09:33:11.852Z,20.55
2024-01-20T09:35:42.482Z,20.38
2024-01-20T09:38:17.006Z,18.20
2024-01-20T09:40:51.091Z,18.52
2024-01-20T09:43:21.298Z,19.98
2024-01-20T09:45:51.993Z,19.33
2024-01-20T09:48:22.357Z,19.88
2024-01-20T09:50:53.766Z,27.25
2024-01-20T09:53:24.541Z,22.17
2024-01-20T09:55:58.567Z,19.60
2024-01-20T09:58:32.194Z,17.40
2024-01-20T10:01:05.025Z,17.98
2024-01-20T10:03:38.640Z,16.67
2024-01-20T10:06:09.776Z,22.60
2024-01-20T10:08:39.987Z,15.82
2024-01-20T10:11:12.936Z,15.98
2024-01-20T10:13:43.479Z,21.42
2024-01-20T10:16:13.646Z,17.42
2024-01-20T10:18:44.270Z,12.88
2024-01-20T10:21:14.548Z,15.10
2024-01-20T10:23:48.060Z,15.57
2024-01-20T10:26:21.971Z,17.73
2024-01-20T10:28:51.967Z,15.35
2024-01-20T10:31:25.991Z,15.27
2024-01-20T10:33:56.918Z,12.90
2024-01-20T10:36:28.790Z,16.23
2024-01-20T10:39:06.014Z,14.55
2024-01-20T10:41:44.319Z,15.10
2024-01-20T10:44:19.074Z,15.80
2024-01-20T10:46:52.321Z,14.73
2024-01-20T10:49:26.720Z,13.77
2024-01-20T10:51:59.037Z,14.52
2024-01-20T10:54:31.158Z,15.55
2024-01-20T10:57:04.321Z,13.57
2024-01-20T10:59:39.394Z,19.20
2024-01-20T11:02:11.048Z,13.27
2024-01-20T11:04:43.121Z,12.80
2024-01-20T11:07:14.440Z,12.57
2024-01-20T11:09:44.676Z,17.05
2024-01-20T11:12:17.425Z,13.38
2024-01-20T11:14:54.794Z,12.40
2024-01-20T11:17:26.203Z,12.55
2024-01-20T11:19:56.517Z,10.68
2024-01-20T11:22:34.526Z,14.02
2024-01-20T11:25:10.524Z,11.60
2024-01-20T11:28:01.930Z,12.25
2024-01-20T11:30:33.481Z,15.40
2024-01-20T11:33:06.458Z,12.02
2024-01-20T11:35:42.704Z,10.20
2024-01-20T11:38:14.241Z,11.57
2024-01-20T11:40:44.925Z,10.85
2024-01-20T11:43:18.180Z,12.25
2024-01-20T11:45:48.653Z,12.55
2024-01-20T11:48:19.697Z,10.07
2024-01-20T11:50:50.682Z,12.05
2024-01-20T11:53:22.209Z,10.35
2024-01-20T11:55:57.295Z,9.65
2024-01-20T11:58:33.016Z,11.95
2024-01-20T12:01:04.615Z,12.52
2024-01-20T12:03:35.368Z,10.43
2024-01-20T12:06:12.202Z,11.55
2024-01-20T12:08:46.684Z,10.20
2024-01-20T12:11:22.508Z,9.50
2024-01-20T12:13:55.301Z,10.45
2024-01-20T12:16:26.696Z,9.57
2024-01-20T12:18:57.866Z,8.13
2024-01-20T12:21:29.228Z,13.00
2024-01-20T12:23:59.659Z,10.77
2024-01-20T12:26:29.745Z,9.63
2024-01-20T12:29:04.093Z,17.45
2024-01-20T12:31:35.022Z,9.65
2024-01-20T12:34:05.810Z,13.05
2024-01-20T12:36:36.743Z,14.05
2024-01-20T12:39:07.970Z,11.63
2024-01-20T12:41:39.400Z,11.85
2024-01-20T12:44:12.640Z,8.45
2024-01-20T12:46:42.667Z,11.10
2024-01-20T12:49:13.559Z,12.77
2024-01-20T12:51:46.666Z,11.43
2024-01-20T12:54:18.136Z,11.80
2024-01-20T12:56:49.283Z,12.88
2024-01-20T12:59:22.415Z,10.63
2024-01-20T13:01:53.071Z,11.18
2024-01-20T13:04:26.609Z,14.68
2024-01-20T13:06:59.769Z,16.85
2024-01-20T13:09:30.986Z,15.77
2024-01-20T13:12:02.010Z,14.77
2024-01-20T13:14:35.292Z,11.27
2024-01-20T13:17:06.599Z,11.63
2024-01-20T13:19:37.670Z,11.13
2024-01-20T13:22:07.747Z,12.45
2024-01-20T13:24:38.279Z,14.85
2024-01-20T13:27:09.076Z,14.63
2024-01-20T13:29:42.176Z,11.00
2024-01-20T13:32:13.538Z,12.50
2024-01-20T13:34:44.145Z,11.93
2024-01-20T13:37:14.456Z,14.82
2024-01-20T13:39:44.426Z,11.82
2024-01-20T13:42:15.046Z,12.48
2024-01-20T13:44:48.420Z,12.75
2024-01-20T13:47:19.851Z,14.73
2024-01-20T13:49:51.020Z,11.50
2024-01-20T13:52:21.382Z,10.50
2024-01-20T13:54:53.390Z,11.02
2024-01-20T13:57:24.868Z,9.52
2024-01-20T13:59:58.116Z,12.60
2024-01-20T14:02:28.281Z,12.57
2024-01-20T14:04:58.787Z,12.00
2024-01-20T14:07:30.106Z,10.98
2024-01-20T14:10:03.176Z,9.27
2024-01-20T14:12:33.583Z,11.07
2024-01-20T14:15:07.787Z,12.73
2024-01-20T14:17:38.131Z,12.88
2024-01-20T14:20:10.600Z,12.52
2024-01-20T14:25:12.156Z,8.88
2024-01-20T14:27:43.791Z,7.88
2024-01-20T14:30:18.916Z,9.38
2024-01-20T14:32:49.428Z,9.95
2024-01-20T14:35:19.860Z,12.38
2024-01-20T14:37:50.425Z,9.00
2024-01-20T14:40:20.628Z,9.90
2024-01-20T14:42:54.581Z,9.75
2024-01-20T14:45:27.505Z,8.98
2024-01-20T14:47:57.891Z,11.38
2024-01-20T14:50:27.950Z,11.40
2024-01-20T14:52:59.050Z,7.70
2024-01-20T14:55:31.668Z,8.90
2024-01-20T14:58:02.711Z,9.15
2024-01-20T15:00:35.468Z,14.15
2024-01-20T15:03:06.196Z,9.02
2024-01-20T15:05:36.894Z,7.97
2024-01-20T15:08:08.577Z,11.43
2024-01-20T15:10:38.769Z,12.05
2024-01-20T15:13:09.031Z,14.88
2024-01-20T15:15:42.043Z,9.18
2024-01-20T15:18:12.486Z,13.30
2024-01-20T15:20:42.539Z,12.32
2024-01-20T15:23:16.724Z,17.85
2024-01-20T15:25:52.656Z,10.80
2024-01-20T15:28:24.662Z,11.70
2024-01-20T15:30:59.214Z,13.18
2024-01-20T15:33:29.713Z,13.30
2024-01-20T15:36:01.556Z,14.23
2024-01-20T15:38:31.831Z,17.95
2024-01-20T15:41:02.201Z,20.58
2024-01-20T15:43:33.029Z,14.57
2024-01-20T15:46:06.378Z,18.30
2024-01-20T15:48:37.807Z,12.80
2024-01-20T15:51:09.341Z,15.80
2024-01-20T15:53:41.531Z,12.82
2024-01-20T15:56:15.320Z,13.88
2024-01-20T15:58:46.697Z,14.13
2024-01-20T16:01:22.042Z,13.70
2024-01-20T16:03:54.029Z,15.35
2024-01-20T16:06:26.219Z,14.45
2024-01-20T16:08:57.978Z,16.23
2024-01-20T16:11:28.271Z,11.35
2024-01-20T16:13:59.067Z,13.10
2024-01-20T16:16:31.937Z,13.23
2024-01-20T16:19:02.459Z,11.65
2024-01-20T16:21:34.979Z,10.77
2024-01-20T16:24:05.709Z,15.25
2024-01-20T16:26:35.790Z,11.07
2024-01-20T16:29:05.993Z,14.30
2024-01-20T16:31:41.483Z,12.52
2024-01-20T16:34:12.116Z,10.18
2024-01-20T16:36:42.701Z,16.45
2024-01-20T16:39:14.472Z,13.00
2024-01-20T16:41:46.247Z,13.40
2024-01-20T16:44:17.688Z,12.63
2024-01-20T16:46:57.951Z,12.48
2024-01-20T16:49:28.546Z,13.13
2024-01-20T16:51:59.817Z,15.15
2024-01-20T16:54:30.166Z,13.63
2024-01-20T16:57:00.459Z,14.35
2024-01-20T16:59:30.802Z,16.08
2024-01-20T17:02:03.987Z,9.90
2024-01-20T17:04:34.546Z,16.65
2024-01-20T17:07:04.702Z,10.23
2024-01-20T17:09:34.870Z,10.43
2024-01-20T17:12:05.477Z,11.02
2024-01-20T17:14:38.185Z,12.50
2024-01-20T17:17:11.984Z,13.20
2024-01-20T17:19:42.957Z,12.50
2024-01-20T17:22:13.241Z,14.07
2024-01-20T17:24:43.292Z,12.43
2024-01-20T17:27:13.938Z,14.13
2024-01-20T17:29:44.039Z,10.82
2024-01-20T17:32:17.104Z,11.65
2024-01-20T17:34:47.136Z,12.02
2024-01-20T17:37:17.702Z,11.90
2024-01-20T17:39:48.413Z,11.88
2024-01-20T17:42:19.261Z,13.70
2024-01-20T17:44:49.979Z,15.80
2024-01-20T17:47:23.490Z,12.60
2024-01-20T17:49:56.170Z,17.80
2024-01-20T17:52:26.614Z,11.52
2024-01-20T17:54:56.946Z,18.10
2024-01-20T17:57:28.920Z,13.15
2024-01-20T17:59:59.094Z,15.82
2024-01-20T18:02:34.233Z,11.43
2024-01-20T18:05:04.681Z,13.43
2024-01-20T18:07:34.809Z,14.32
2024-01-20T18:10:05.219Z,19.63
2024-01-20T18:12:35.975Z,12.45
2024-01-20T18:15:07.516Z,12.15
2024-01-20T18:17:40.171Z,14.70
2024-01-20T18:20:11.404Z,17.35
2024-01-20T18:22:41.836Z,17.98
2024-01-20T18:25:12.583Z,13.50
2024-01-20T18:27:42.902Z,13.85
2024-01-20T18:30:13.614Z,14.40
2024-01-20T18:32:46.760Z,14.82
2024-01-20T18:35:17.267Z,13.23
2024-01-20T18:37:48.602Z,14.63
2024-01-20T18:40:18.718Z,15.45
2024-01-20T18:42:50.840Z,15.90
2024-01-20T18:45:20.828Z,12.13
2024-01-20T18:47:53.642Z,16.40
2024-01-20T18:50:23.954Z,19.98
2024-01-20T18:52:55.077Z,12.77
2024-01-20T18:55:25.104Z,11.50
2024-01-20T18:57:55.140Z,13.32
2024-01-20T19:00:25.367Z,15.35
2024-01-20T19:02:58.190Z,16.85
2024-01-20T19:05:28.670Z,12.70
2024-01-20T19:07:59.028Z,10.90
2024-01-20T19:10:31.243Z,13.70
2024-01-20T19:13:01.189Z,14.68
2024-01-20T19:15:31.148Z,14.20
2024-01-20T19:18:04.180Z,15.57
2024-01-20T19:20:38.386Z,13.07
2024-01-20T19:23:08.875Z,10.73
2024-01-20T19:25:39.057Z,14.27
2024-01-20T19:28:09.119Z,10.55
2024-01-20T19:30:39.270Z,12.88
2024-01-20T19:33:12.466Z,14.82
2024-01-20T19:35:42.821Z,17.98
2024-01-20T19:38:12.838Z,12.18
2024-01-20T19:40:43.636Z,11.50
2024-01-20T19:43:13.647Z,13.35
2024-01-20T19:45:44.309Z,15.77
2024-01-20T19:48:17.931Z,10.68
2024-01-20T19:50:50.584Z,12.27
2024-01-20T19:53:22.570Z,11.23
2024-01-20T19:55:52.597Z,14.57
2024-01-20T19:58:22.612Z,13.38
2024-01-20T20:00:54.735Z,14.90
2024-01-20T20:03:27.653Z,15.63
2024-01-20T20:05:57.883Z,12.38
2024-01-20T20:08:30.170Z,11.02
2024-01-20T20:11:01.925Z,12.50
2024-01-20T20:13:34.927Z,10.55
2024-01-20T20:16:06.390Z,9.60
2024-01-20T20:18:40.596Z,12.25
2024-01-20T20:21:19.618Z,14.55
2024-01-20T20:23:49.543Z,14.27
2024-01-20T20:26:19.823Z,35.47
2024-01-20T20:28:49.856Z,25.50
2024-01-20T20:31:23.701Z,17.10
2024-01-20T20:33:56.977Z,12.55
2024-01-20T20:36:27.373Z,6.15
2024-01-20T20:38:57.386Z,9.10
2024-01-20T20:41:27.444Z,11.20
2024-01-20T20:43:59.373Z,9.68
2024-01-20T20:46:29.791Z,9.73
2024-01-20T20:49:03.452Z,9.38
2024-01-20T20:51:35.844Z,9.52
2024-01-20T20:54:06.231Z,11.23
2024-01-20T20:56:36.317Z,7.97
2024-01-20T20:59:06.752Z,9.43
2024-01-20T21:01:38.096Z,10.57
2024-01-20T21:04:11.688Z,8.93
2024-01-20T21:06:43.939Z,11.25
2024-01-20T21:09:16.972Z,10.18
2024-01-20T21:11:49.587Z,12.27
2024-01-20T21:14:22.258Z,14.57
2024-01-20T21:16:53.809Z,18.25
2024-01-20T21:19:27.709Z,9.20
2024-01-20T21:21:59.689Z,11.75
2024-01-20T21:24:30.186Z,18.60
2024-01-20T21:27:01.269Z,12.02
2024-01-20T21:29:31.441Z,16.15
2024-01-20T21:32:01.409Z,9.40
2024-01-20T21:34:34.195Z,9.93
2024-01-20T21:37:04.715Z,11.23
2024-01-20T21:39:34.682Z,9.45
2024-01-20T21:42:04.977Z,7.55
2024-01-20T21:44:34.921Z,8.82
2024-01-20T21:47:05.209Z,12.65
2024-01-20T21:49:38.076Z,10.80
2024-01-20T21:52:09.020Z,9.27
2024-01-20T21:54:39.260Z,13.48
2024-01-20T21:57:09.907Z,14.43
2024-01-20T21:59:40.003Z,10.98
2024-01-20T22:02:10.470Z,10.63
2024-01-20T22:04:44.449Z,11.93
2024-01-20T22:07:17.621Z,12.60
2024-01-20T22:09:47.707Z,10.98
2024-01-20T22:12:20.433Z,11.20
2024-01-20T22:14:50.591Z,14.40
2024-01-20T22:17:20.779Z,10.45
2024-01-20T22:19:53.540Z,12.00
2024-01-20T22:24:54.180Z,14.48
2024-01-20T22:27:24.419Z,8.35
2024-01-20T22:29:54.423Z,8.13
2024-01-20T22:32:27.708Z,8.88
2024-01-20T22:35:00.407Z,9.15
2024-01-20T22:37:31.591Z,10.07
2024-01-20T22:40:03.330Z,11.82
2024-01-20T22:42:34.350Z,11.10
2024-01-20T22:45:08.574Z,10.40
2024-01-20T22:47:39.182Z,11.88
2024-01-20T22:50:14.098Z,7.60
2024-01-20T22:52:46.501Z,7.05
2024-01-20T22:55:18.038Z,7.38
2024-01-20T22:57:49.098Z,5.28
2024-01-20T23:00:27.082Z,7.38
2024-01-20T23:02:59.588Z,7.25
2024-01-20T23:05:32.346Z,7.57
2024-01-20T23:08:02.431Z,8.55
2024-01-20T23:10:32.746Z,6.75
2024-01-20T23:13:05.720Z,8.43
2024-01-20T23:15:37.998Z,7.68
2024-01-20T23:18:08.592Z,7.75
2024-01-20T23:20:41.765Z,8.10
2024-01-20T23:23:12.635Z,8.27
2024-01-20T23:25:45.962Z,9.13
2024-01-20T23:28:15.976Z,7.45
2024-01-20T23:30:46.277Z,6.88
2024-01-20T23:33:30.716Z,6.18
2024-01-20T23:36:04.601Z,8.80
2024-01-20T23:38:34.444Z,7.35
2024-01-20T23:41:05.012Z,7.22
2024-01-20T23:43:35.085Z,7.68
2024-01-20T23:46:06.656Z,6.05
2024-01-20T23:48:37.271Z,8.38
2024-01-20T23:51:10.716Z,8.27
2024-01-20T23:53:40.910Z,7.00
2024-01-20T23:56:11.309Z,9.93
2024-01-20T23:58:41.410Z,13.65
